createdAt,value
2022-09-13T00:01:00.709Z,79.60
2022-09-13T00:03:28.627Z,79.70
2022-09-13T00:05:55.699Z,79.70
2022-09-13T00:08:22.809Z,79.80
2022-09-13T00:10:49.970Z,79.90
2022-09-13T00:13:17.730Z,79.90
2022-09-13T00:15:49.978Z,80.00
2022-09-13T00:18:18.786Z,80.10
2022-09-13T00:20:46.241Z,80.10
2022-09-13T00:23:13.901Z,80.10
2022-09-13T00:25:40.953Z,80.10
2022-09-13T00:28:08.078Z,80.10
2022-09-13T00:30:35.452Z,80.10
2022-09-13T00:33:04.971Z,80.10
2022-09-13T00:35:32.407Z,80.10
2022-09-13T00:38:01.039Z,80.00
2022-09-13T00:40:30.544Z,80.00
2022-09-13T00:42:57.599Z,80.10
2022-09-13T00:45:24.792Z,80.00
2022-09-13T00:48:05.437Z,80.00
2022-09-13T00:50:41.732Z,80.30
2022-09-13T00:53:17.639Z,80.20
2022-09-13T00:55:51.040Z,80.10
2022-09-13T00:58:27.231Z,80.20
2022-09-13T01:00:58.354Z,80.10
2022-09-13T01:03:28.900Z,80.00
2022-09-13T01:06:05.707Z,80.00
2022-09-13T01:08:33.671Z,80.20
2022-09-13T01:11:02.309Z,80.00
2022-09-13T01:13:33.489Z,80.10
2022-09-13T01:16:01.368Z,80.20
2022-09-13T01:18:28.400Z,80.20
2022-09-13T01:21:54.380Z,80.10
2022-09-13T01:24:51.297Z,80.50
2022-09-13T01:27:51.452Z,80.50
2022-09-13T01:30:22.972Z,80.20
2022-09-13T01:33:28.088Z,80.00
2022-09-13T01:36:16.392Z,80.40
2022-09-13T01:39:05.807Z,80.00
2022-09-13T01:42:01.476Z,80.20
2022-09-13T01:45:02.983Z,80.10
2022-09-13T01:48:01.438Z,80.50
2022-09-13T01:50:41.931Z,80.40
2022-09-13T01:53:41.557Z,80.40
2022-09-13T01:56:31.740Z,80.40
2022-09-13T01:59:22.279Z,80.60
2022-09-13T02:02:05.250Z,80.50
2022-09-13T02:04:41.626Z,80.60
2022-09-13T02:07:20.762Z,80.60
2022-09-13T02:09:58.436Z,80.70
2022-09-13T02:12:29.171Z,80.70
2022-09-13T02:15:18.764Z,80.70
2022-09-13T02:17:59.747Z,81.00
2022-09-13T02:20:34.140Z,80.80
2022-09-13T02:23:09.221Z,80.90
2022-09-13T02:25:39.511Z,80.80
2022-09-13T02:28:11.930Z,80.90
2022-09-13T02:30:47.525Z,80.90
2022-09-13T02:33:19.285Z,81.00
2022-09-13T02:35:56.630Z,80.90
2022-09-13T02:38:31.392Z,81.00
2022-09-13T02:41:07.264Z,81.00
2022-09-13T02:43:46.947Z,80.90
2022-09-13T02:46:57.459Z,81.00
2022-09-13T02:50:06.313Z,81.10
2022-09-13T02:52:58.094Z,81.50
2022-09-13T02:55:46.449Z,81.60
2022-09-13T02:58:54.575Z,81.50
2022-09-13T03:01:21.744Z,82.10
2022-09-13T03:03:49.354Z,82.00
2022-09-13T03:06:28.315Z,81.50
2022-09-13T03:09:00.110Z,81.70
2022-09-13T03:12:04.786Z,81.60
2022-09-13T03:14:49.269Z,81.90
2022-09-13T03:17:39.644Z,81.60
2022-09-13T03:20:41.961Z,81.60
2022-09-13T03:23:36.144Z,81.60
2022-09-13T03:26:27.299Z,81.70
2022-09-13T03:29:46.717Z,81.60
2022-09-13T03:32:33.109Z,81.30
2022-09-13T03:35:15.416Z,81.20
2022-09-13T03:38:02.963Z,80.90
2022-09-13T03:40:43.484Z,80.80
2022-09-13T03:43:23.658Z,80.70
2022-09-13T03:45:58.980Z,80.60
2022-09-13T03:48:29.879Z,80.50
2022-09-13T03:50:57.126Z,80.50
2022-09-13T03:53:27.599Z,80.50
2022-09-13T03:55:54.852Z,80.70
2022-09-13T03:58:22.330Z,80.70
2022-09-13T04:00:49.598Z,80.80
2022-09-13T04:03:16.530Z,80.90
2022-09-13T04:05:44.073Z,81.10
2022-09-13T04:08:10.833Z,81.40
2022-09-13T04:10:38.157Z,81.60
2022-09-13T04:13:05.437Z,81.80
2022-09-13T04:15:32.468Z,82.00
2022-09-13T04:18:00.945Z,82.20
2022-09-13T04:20:29.256Z,82.30
2022-09-13T04:22:57.699Z,82.50
2022-09-13T04:25:24.907Z,82.60
2022-09-13T04:27:57.096Z,82.60
2022-09-13T04:30:23.942Z,82.70
2022-09-13T04:32:50.957Z,82.60
2022-09-13T04:35:20.071Z,82.70
2022-09-13T04:37:47.272Z,82.60
2022-09-13T04:40:14.532Z,82.50
2022-09-13T04:42:46.771Z,82.40
2022-09-13T04:45:14.048Z,82.20
2022-09-13T04:47:41.069Z,82.10
2022-09-13T04:50:08.300Z,82.00
2022-09-13T04:52:35.358Z,81.80
2022-09-13T04:55:03.044Z,81.70
2022-09-13T04:57:29.930Z,81.60
2022-09-13T04:59:56.872Z,81.40
2022-09-13T05:02:24.012Z,81.30
2022-09-13T05:04:50.959Z,81.20
2022-09-13T05:07:18.127Z,81.20
2022-09-13T05:09:45.104Z,81.20
2022-09-13T05:12:11.906Z,81.20
2022-09-13T05:14:38.999Z,81.30
2022-09-13T05:17:05.833Z,81.20
2022-09-13T05:19:33.092Z,81.20
2022-09-13T05:21:59.904Z,81.10
2022-09-13T05:24:27.832Z,81.20
2022-09-13T05:26:57.928Z,81.00
2022-09-13T05:29:24.761Z,81.00
2022-09-13T05:31:51.611Z,80.70
2022-09-13T05:34:19.676Z,80.70
2022-09-13T05:36:51.656Z,80.60
2022-09-13T05:39:34.174Z,80.70
2022-09-13T05:42:10.921Z,80.40
2022-09-13T05:44:37.725Z,80.00
2022-09-13T05:47:05.581Z,79.80
2022-09-13T05:49:32.499Z,79.50
2022-09-13T05:51:59.309Z,79.10
2022-09-13T05:54:26.138Z,78.80
2022-09-13T05:56:57.566Z,78.50
2022-09-13T05:59:24.490Z,78.30
2022-09-13T06:01:52.059Z,77.90
2022-09-13T06:04:19.121Z,77.50
2022-09-13T06:06:45.915Z,77.70
2022-09-13T06:09:13.205Z,78.30
2022-09-13T06:11:40.421Z,78.50
2022-09-13T06:14:07.484Z,78.70
2022-09-13T06:16:34.569Z,79.10
2022-09-13T06:19:01.529Z,79.60
2022-09-13T06:21:29.463Z,80.00
2022-09-13T06:23:56.860Z,80.30
2022-09-13T06:29:17.531Z,81.60
2022-09-13T06:31:45.413Z,82.50
2022-09-13T06:34:15.461Z,83.10
2022-09-13T06:36:43.269Z,83.60
2022-09-13T06:39:10.109Z,83.80
2022-09-13T06:41:37.801Z,84.10
2022-09-13T06:44:05.114Z,84.40
2022-09-13T06:46:34.376Z,84.90
2022-09-13T06:49:07.180Z,85.40
2022-09-13T06:51:35.644Z,85.70
2022-09-13T06:54:03.842Z,86.00
2022-09-13T06:56:36.643Z,86.40
2022-09-13T06:59:08.373Z,87.20
2022-09-13T07:01:41.672Z,87.70
2022-09-13T07:04:12.101Z,88.20
2022-09-13T07:06:42.820Z,88.50
2022-09-13T07:09:15.001Z,89.10
2022-09-13T07:11:42.567Z,89.40
2022-09-13T07:14:13.799Z,89.70
2022-09-13T07:16:40.868Z,90.00
2022-09-13T07:19:15.506Z,90.20
2022-09-13T07:21:42.516Z,90.50
2022-09-13T07:24:10.647Z,90.70
2022-09-13T07:26:38.152Z,90.60
2022-09-13T07:29:08.671Z,90.50
2022-09-13T07:31:41.706Z,90.40
2022-09-13T07:34:18.975Z,90.20
2022-09-13T07:36:49.414Z,90.20
2022-09-13T07:39:22.126Z,90.00
2022-09-13T07:41:50.075Z,90.00
2022-09-13T07:44:17.149Z,89.90
2022-09-13T07:46:44.241Z,89.80
2022-09-13T07:49:14.866Z,90.00
2022-09-13T07:51:43.755Z,90.00
2022-09-13T07:54:18.135Z,90.10
2022-09-13T07:56:45.766Z,90.10
2022-09-13T07:59:17.237Z,90.10
2022-09-13T08:01:47.434Z,90.20
2022-09-13T08:04:18.516Z,90.20
2022-09-13T08:06:46.759Z,90.50
2022-09-13T08:09:15.062Z,90.60
2022-09-13T08:11:49.679Z,90.60
2022-09-13T08:14:19.774Z,90.80
2022-09-13T08:16:47.696Z,90.80
2022-09-13T08:19:18.488Z,91.00
2022-09-13T08:21:46.931Z,91.00
2022-09-13T08:24:21.171Z,91.00
2022-09-13T08:26:49.238Z,91.10
2022-09-13T08:29:17.410Z,91.10
2022-09-13T08:31:45.157Z,91.00
2022-09-13T08:34:15.508Z,91.10
2022-09-13T08:36:44.046Z,91.00
2022-09-13T08:39:14.227Z,90.80
2022-09-13T08:41:49.408Z,90.10
2022-09-13T08:44:29.836Z,88.60
2022-09-13T08:47:38.241Z,88.20
2022-09-13T08:50:18.376Z,87.90
2022-09-13T08:53:26.178Z,87.60
2022-09-13T08:56:03.614Z,87.10
2022-09-13T08:58:51.812Z,87.20
2022-09-13T09:01:56.576Z,86.30
2022-09-13T09:04:35.314Z,85.10
2022-09-13T09:07:25.158Z,83.90
2022-09-13T09:10:19.196Z,83.20
2022-09-13T09:12:53.617Z,82.00
2022-09-13T09:15:30.055Z,79.50
2022-09-13T09:18:09.479Z,77.80
2022-09-13T09:20:51.363Z,77.70
2022-09-13T09:23:22.115Z,72.10
2022-09-13T09:25:56.547Z,70.10
2022-09-13T09:31:44.727Z,68.90
2022-09-13T09:34:25.853Z,67.40
2022-09-13T09:37:25.404Z,66.40
2022-09-13T09:39:55.702Z,64.80
2022-09-13T09:42:31.143Z,64.70
2022-09-13T09:45:06.680Z,63.30
2022-09-13T09:48:04.644Z,64.40
2022-09-13T09:50:39.670Z,62.80
2022-09-13T09:53:25.353Z,61.80
2022-09-13T09:56:02.682Z,58.60
2022-09-13T09:58:43.023Z,58.50
2022-09-13T10:01:24.447Z,56.40
2022-09-13T10:04:06.006Z,56.60
2022-09-13T10:06:33.741Z,54.60
2022-09-13T10:09:14.568Z,52.40
2022-09-13T10:11:54.415Z,50.40
2022-09-13T10:14:42.719Z,49.00
2022-09-13T10:17:26.804Z,48.80
2022-09-13T10:20:14.928Z,47.60
2022-09-13T10:22:42.940Z,47.80
2022-09-13T10:25:22.511Z,47.70
2022-09-13T10:27:58.760Z,46.20
2022-09-13T10:30:54.997Z,45.10
2022-09-13T10:33:42.627Z,44.60
2022-09-13T10:36:48.125Z,43.90
2022-09-13T10:39:20.278Z,43.30
2022-09-13T10:42:02.349Z,43.70
2022-09-13T10:44:41.472Z,44.10
2022-09-13T10:47:30.881Z,44.80
2022-09-13T10:50:22.908Z,45.40
2022-09-13T10:52:52.978Z,46.00
2022-09-13T10:55:19.701Z,46.60
2022-09-13T10:57:51.384Z,46.90
2022-09-13T11:00:31.178Z,47.00
2022-09-13T11:03:26.402Z,47.10
2022-09-13T11:06:11.907Z,47.40
2022-09-13T11:08:57.566Z,47.50
2022-09-13T11:11:57.814Z,47.40
2022-09-13T11:14:46.150Z,47.70
2022-09-13T11:17:36.728Z,47.70
2022-09-13T11:20:52.531Z,48.00
2022-09-13T11:23:35.709Z,48.70
2022-09-13T11:26:09.977Z,50.00
2022-09-13T11:28:58.765Z,50.20
2022-09-13T11:31:50.853Z,50.80
2022-09-13T11:34:37.737Z,51.30
2022-09-13T11:37:39.928Z,52.00
2022-09-13T11:41:06.284Z,51.80
2022-09-13T11:44:04.049Z,52.60
2022-09-13T11:47:03.445Z,53.40
2022-09-13T11:50:21.526Z,54.40
2022-09-13T11:53:30.275Z,55.30
2022-09-13T11:56:32.402Z,56.30
2022-09-13T11:59:35.092Z,56.90
2022-09-13T12:02:45.686Z,57.70
2022-09-13T12:05:24.283Z,58.30
2022-09-13T12:08:05.273Z,58.70
2022-09-13T12:11:04.165Z,59.50
2022-09-13T12:13:53.197Z,59.90
2022-09-13T12:16:35.928Z,60.50
2022-09-13T12:19:19.454Z,61.10
2022-09-13T12:21:57.352Z,61.40
2022-09-13T12:24:42.760Z,61.50
2022-09-13T12:27:14.171Z,61.80
2022-09-13T12:29:50.668Z,61.80
2022-09-13T12:32:18.940Z,61.80
2022-09-13T12:35:20.036Z,62.50
2022-09-13T12:38:41.285Z,62.10
2022-09-13T12:41:26.305Z,62.50
2022-09-13T12:44:42.574Z,62.00
2022-09-13T12:47:28.054Z,62.00
2022-09-13T12:53:36.740Z,62.20
2022-09-13T12:56:53.634Z,62.20
2022-09-13T12:59:44.692Z,62.60
2022-09-13T13:02:35.322Z,62.70
2022-09-13T13:05:27.757Z,62.90
2022-09-13T13:08:23.054Z,63.00
2022-09-13T13:11:13.063Z,63.10
2022-09-13T13:13:44.980Z,63.40
2022-09-13T13:16:31.378Z,63.30
2022-09-13T13:19:01.605Z,63.50
2022-09-13T13:21:39.313Z,63.60
2022-09-13T13:24:29.014Z,64.30
2022-09-13T13:27:40.578Z,65.10
2022-09-13T13:30:42.190Z,64.90
2022-09-13T13:33:23.229Z,65.00
2022-09-13T13:36:41.508Z,65.40
2022-09-13T13:39:44.858Z,64.60
2022-09-13T13:42:38.130Z,64.20
2022-09-13T13:45:24.214Z,64.10
2022-09-13T13:48:09.532Z,64.10
2022-09-13T13:51:17.812Z,64.10
2022-09-13T13:54:15.781Z,64.00
2022-09-13T13:57:31.771Z,63.70
2022-09-13T14:00:24.013Z,63.30
2022-09-13T14:02:50.863Z,63.20
2022-09-13T14:05:36.379Z,63.30
2022-09-13T14:08:51.664Z,63.50
2022-09-13T14:11:51.738Z,63.70
2022-09-13T14:15:02.873Z,63.20
2022-09-13T14:17:54.864Z,62.50
2022-09-13T14:20:22.587Z,61.90
2022-09-13T14:22:49.474Z,61.90
2022-09-13T14:25:23.052Z,62.00
2022-09-13T14:27:53.778Z,61.10
2022-09-13T14:33:30.937Z,59.60
2022-09-13T14:39:13.429Z,57.10
2022-09-13T14:41:40.470Z,56.60
2022-09-13T14:44:28.759Z,56.20
2022-09-13T14:47:26.965Z,55.50
2022-09-13T14:50:12.312Z,55.40
2022-09-13T14:52:54.523Z,55.30
2022-09-13T14:55:37.514Z,55.30
2022-09-13T14:58:07.654Z,55.40
2022-09-13T15:00:48.468Z,55.30
2022-09-13T15:03:18.163Z,55.40
2022-09-13T15:05:59.584Z,55.70
2022-09-13T15:08:27.496Z,56.10
2022-09-13T15:11:41.002Z,56.40
2022-09-13T15:14:28.611Z,56.60
2022-09-13T15:17:04.254Z,56.60
2022-09-13T15:19:50.561Z,56.90
2022-09-13T15:22:38.711Z,57.00
2022-09-13T15:25:06.087Z,57.20
2022-09-13T15:27:48.258Z,57.40
2022-09-13T15:30:32.081Z,57.30
2022-09-13T15:33:11.605Z,57.50
2022-09-13T15:35:47.049Z,57.00
2022-09-13T15:44:10.565Z,55.60
2022-09-13T15:46:56.127Z,55.30
2022-09-13T15:49:29.095Z,54.50
2022-09-13T15:52:21.554Z,54.30
2022-09-13T15:54:50.988Z,54.20
2022-09-13T15:57:28.907Z,53.50
2022-09-13T16:00:00.522Z,53.10
2022-09-13T16:02:41.174Z,52.70
2022-09-13T16:05:08.667Z,52.30
2022-09-13T16:07:35.469Z,52.20
2022-09-13T16:10:03.581Z,52.30
2022-09-13T16:12:30.368Z,52.40
2022-09-13T16:14:57.475Z,52.70
2022-09-13T16:17:26.779Z,52.80
2022-09-13T16:19:55.067Z,53.00
2022-09-13T16:22:22.761Z,53.30
2022-09-13T16:24:49.970Z,53.50
2022-09-13T16:27:19.257Z,53.80
2022-09-13T16:29:46.744Z,54.10
2022-09-13T16:32:14.196Z,54.40
2022-09-13T16:34:41.121Z,54.70
2022-09-13T16:37:08.037Z,55.00
2022-09-13T16:39:35.122Z,55.50
2022-09-13T16:42:02.041Z,55.90
2022-09-13T16:44:28.981Z,56.30
2022-09-13T16:46:56.578Z,56.60
2022-09-13T16:52:15.637Z,57.30
2022-09-13T16:54:46.593Z,57.80
2022-09-13T16:57:13.947Z,58.20
2022-09-13T16:59:41.653Z,58.60
2022-09-13T17:02:11.365Z,59.10
2022-09-13T17:04:38.351Z,59.60
2022-09-13T17:07:07.294Z,59.90
2022-09-13T17:09:35.106Z,60.40
2022-09-13T17:12:02.572Z,60.90
2022-09-13T17:14:30.008Z,61.40
2022-09-13T17:16:58.106Z,61.70
2022-09-13T17:19:33.557Z,62.30
2022-09-13T17:22:03.632Z,63.00
2022-09-13T17:24:31.421Z,63.20
2022-09-13T17:26:58.996Z,63.60
2022-09-13T17:29:31.239Z,64.20
2022-09-13T17:31:59.786Z,64.40
2022-09-13T17:34:26.804Z,64.80
2022-09-13T17:37:18.919Z,65.30
2022-09-13T17:39:46.921Z,65.60
2022-09-13T17:42:14.253Z,66.00
2022-09-13T17:44:41.075Z,66.50
2022-09-13T17:47:08.229Z,66.90
2022-09-13T17:49:35.177Z,67.10
2022-09-13T17:52:03.056Z,67.50
2022-09-13T17:54:30.100Z,67.90
2022-09-13T17:56:56.923Z,68.10
2022-09-13T17:59:24.088Z,68.30
2022-09-13T18:01:53.752Z,68.70
2022-09-13T18:04:23.329Z,69.10
2022-09-13T18:06:52.882Z,69.30
2022-09-13T18:09:20.370Z,69.70
2022-09-13T18:11:47.379Z,69.80
2022-09-13T18:14:16.716Z,70.10
2022-09-13T18:16:45.000Z,70.30
2022-09-13T18:19:12.370Z,70.50
2022-09-13T18:21:40.150Z,70.70
2022-09-13T18:24:07.292Z,71.00
2022-09-13T18:26:35.269Z,71.10
2022-09-13T18:29:06.365Z,71.30
2022-09-13T18:31:35.865Z,71.50
2022-09-13T18:34:07.023Z,71.70
2022-09-13T18:36:35.336Z,71.80
2022-09-13T18:39:04.849Z,72.00
2022-09-13T18:41:40.339Z,72.10
2022-09-13T18:44:10.144Z,72.40
2022-09-13T18:46:37.691Z,72.40
2022-09-13T18:49:06.447Z,72.40
2022-09-13T18:51:45.219Z,72.60
2022-09-13T18:54:16.000Z,73.10
2022-09-13T18:57:07.823Z,72.90
2022-09-13T18:59:36.032Z,72.90
2022-09-13T19:02:03.006Z,73.20
2022-09-13T19:04:31.863Z,73.40
2022-09-13T19:06:59.065Z,73.50
2022-09-13T19:09:25.933Z,73.70
2022-09-13T19:11:55.040Z,73.90
2022-09-13T19:14:28.617Z,74.20
2022-09-13T19:17:00.998Z,74.60
2022-09-13T19:19:30.210Z,74.60
2022-09-13T19:21:57.455Z,74.60
2022-09-13T19:24:25.300Z,74.80
2022-09-13T19:26:53.635Z,75.00
2022-09-13T19:29:24.261Z,75.20
2022-09-13T19:32:16.205Z,75.50
2022-09-13T19:34:43.065Z,75.40
2022-09-13T19:37:09.946Z,75.60
2022-09-13T19:39:36.922Z,75.80
2022-09-13T19:42:04.011Z,75.90
2022-09-13T19:44:31.208Z,76.00
2022-09-13T19:47:36.137Z,76.20
2022-09-13T19:49:45.605Z,76.20
2022-09-13T19:52:12.701Z,76.30
2022-09-13T19:54:39.835Z,76.50
2022-09-13T19:57:09.818Z,76.60
2022-09-13T19:59:38.007Z,76.60
2022-09-13T20:02:05.085Z,76.70
2022-09-13T20:04:32.157Z,76.80
2022-09-13T20:06:59.792Z,76.90
2022-09-13T20:09:26.960Z,77.00
2022-09-13T20:12:00.101Z,77.10
2022-09-13T20:14:27.974Z,77.20
2022-09-13T20:16:54.911Z,77.30
2022-09-13T20:19:42.499Z,77.30
2022-09-13T20:22:09.800Z,77.40
2022-09-13T20:24:37.110Z,77.70
2022-09-13T20:27:04.214Z,77.00
2022-09-13T20:29:31.826Z,77.30
2022-09-13T20:32:00.003Z,77.40
2022-09-13T20:34:27.131Z,77.60
2022-09-13T20:36:54.122Z,77.70
2022-09-13T20:39:21.057Z,77.80
2022-09-13T20:41:49.965Z,77.80
2022-09-13T20:44:17.310Z,78.00
2022-09-13T20:46:44.364Z,77.90
2022-09-13T20:49:11.711Z,78.00
2022-09-13T20:51:39.077Z,77.90
2022-09-13T20:54:07.155Z,77.80
2022-09-13T20:56:35.443Z,77.60
2022-09-13T20:59:03.069Z,77.50
2022-09-13T21:01:31.914Z,77.20
2022-09-13T21:04:00.117Z,76.70
2022-09-13T21:06:29.823Z,76.40
2022-09-13T21:08:59.501Z,76.10
2022-09-13T21:11:35.031Z,75.60
2022-09-13T21:14:08.370Z,75.40
2022-09-13T21:16:39.379Z,75.10
2022-09-13T21:19:07.285Z,74.90
2022-09-13T21:21:38.116Z,74.70
2022-09-13T21:24:09.633Z,74.60
2022-09-13T21:26:39.736Z,74.50
2022-09-13T21:29:06.660Z,74.40
2022-09-13T21:31:33.957Z,74.30
2022-09-13T21:34:14.443Z,74.20
2022-09-13T21:36:41.610Z,74.10
2022-09-13T21:39:08.915Z,74.00
2022-09-13T21:41:36.351Z,73.90
2022-09-13T21:44:03.444Z,73.70
2022-09-13T21:46:35.161Z,73.60
2022-09-13T21:49:06.759Z,73.50
2022-09-13T21:51:46.629Z,73.50
2022-09-13T21:54:20.980Z,73.40
2022-09-13T21:56:54.146Z,73.00
2022-09-13T21:59:23.366Z,72.80
2022-09-13T22:01:52.217Z,72.70
2022-09-13T22:04:24.233Z,72.60
2022-09-13T22:06:53.375Z,72.70
2022-09-13T22:09:23.231Z,72.20
2022-09-13T22:11:50.251Z,72.10
2022-09-13T22:14:19.997Z,72.00
2022-09-13T22:16:47.918Z,72.00
2022-09-13T22:19:26.958Z,71.90
2022-09-13T22:21:59.184Z,71.90
2022-09-13T22:24:31.691Z,71.90
2022-09-13T22:26:59.383Z,71.80
2022-09-13T22:29:27.293Z,71.90
2022-09-13T22:31:54.342Z,71.90
2022-09-13T22:34:46.777Z,71.70
2022-09-13T22:37:14.012Z,71.70
2022-09-13T22:39:41.158Z,71.50
2022-09-13T22:42:08.163Z,71.50
2022-09-13T22:44:34.998Z,71.30
2022-09-13T22:47:01.977Z,71.10
2022-09-13T22:49:29.044Z,71.00
2022-09-13T22:51:55.916Z,70.90
2022-09-13T22:54:22.862Z,70.80
2022-09-13T22:56:49.754Z,71.40
2022-09-13T22:59:20.218Z,70.60
2022-09-13T23:01:47.464Z,70.50
2022-09-13T23:04:14.671Z,70.40
2022-09-13T23:06:44.028Z,70.40
2022-09-13T23:09:14.469Z,70.20
2022-09-13T23:11:42.086Z,70.00
2022-09-13T23:14:12.575Z,69.90
2022-09-13T23:16:50.282Z,69.80
2022-09-13T23:19:21.869Z,69.70
2022-09-13T23:21:49.266Z,69.60
2022-09-13T23:24:18.641Z,70.30
2022-09-13T23:26:48.932Z,69.50
2022-09-13T23:29:21.971Z,69.40
2022-09-13T23:31:50.018Z,69.30
2022-09-13T23:34:17.633Z,70.10
2022-09-13T23:36:46.270Z,69.30
2022-09-13T23:39:17.512Z,69.20
2022-09-13T23:41:46.590Z,69.30
2022-09-13T23:44:14.245Z,69.40
2022-09-13T23:46:41.498Z,69.40
2022-09-13T23:49:08.432Z,69.50
2022-09-13T23:51:35.366Z,69.60
2022-09-13T23:54:02.912Z,69.70
2022-09-13T23:56:32.420Z,69.80
2022-09-13T23:59:03.703Z,69.90
